createdAt,value
2023-05-20T00:00:54.793Z,78.41
2023-05-20T00:03:23.075Z,78.52
2023-05-20T00:05:51.515Z,78.52
2023-05-20T00:08:19.959Z,78.62
2023-05-20T00:10:48.037Z,78.74
2023-05-20T00:13:15.944Z,78.67
2023-05-20T00:15:43.971Z,78.72
2023-05-20T00:18:12.067Z,78.82
2023-05-20T00:20:40.115Z,78.81
2023-05-20T00:23:08.182Z,78.88
2023-05-20T00:25:36.408Z,78.88
2023-05-20T00:28:06.197Z,78.90
2023-05-20T00:30:34.157Z,78.94
2023-05-20T00:33:02.369Z,79.14
2023-05-20T00:35:30.395Z,79.11
2023-05-20T00:37:58.286Z,79.13
2023-05-20T00:40:26.396Z,79.13
2023-05-20T00:42:54.932Z,79.14
2023-05-20T00:45:23.122Z,79.19
2023-05-20T00:47:51.251Z,79.24
2023-05-20T00:50:19.323Z,79.30
2023-05-20T00:52:48.384Z,79.36
2023-05-20T00:55:16.774Z,79.42
2023-05-20T00:57:44.793Z,79.48
2023-05-20T01:00:14.205Z,79.50
2023-05-20T01:02:42.355Z,79.43
2023-05-20T01:05:10.829Z,79.52
2023-05-20T01:07:39.012Z,79.63
2023-05-20T01:10:07.647Z,79.71
2023-05-20T01:13:05.291Z,79.71
2023-05-20T01:15:33.960Z,79.82
2023-05-20T01:18:06.093Z,79.80
2023-05-20T01:20:35.994Z,79.81
2023-05-20T01:23:04.407Z,79.77
2023-05-20T01:25:32.527Z,79.88
2023-05-20T01:28:02.222Z,80.01
2023-05-20T01:30:36.069Z,79.99
2023-05-20T01:33:09.820Z,79.92
2023-05-20T01:35:41.552Z,80.07
2023-05-20T01:38:12.733Z,80.09
2023-05-20T01:40:42.927Z,80.10
2023-05-20T01:43:11.175Z,80.08
2023-05-20T01:45:42.049Z,80.16
2023-05-20T01:48:13.541Z,80.13
2023-05-20T01:50:42.520Z,80.28
2023-05-20T01:53:11.742Z,80.30
2023-05-20T01:55:39.771Z,80.28
2023-05-20T01:58:07.769Z,80.31
2023-05-20T02:00:37.138Z,80.34
2023-05-20T02:03:05.420Z,80.52
2023-05-20T02:05:33.744Z,80.41
2023-05-20T02:08:02.069Z,80.38
2023-05-20T02:10:30.087Z,80.46
2023-05-20T02:12:58.025Z,80.43
2023-05-20T02:15:26.226Z,80.44
2023-05-20T02:17:54.926Z,80.56
2023-05-20T02:20:22.941Z,80.47
2023-05-20T02:22:50.953Z,80.59
2023-05-20T02:25:18.994Z,80.58
2023-05-20T02:27:46.977Z,80.64
2023-05-20T02:30:15.201Z,80.72
2023-05-20T02:32:43.272Z,80.72
2023-05-20T02:35:11.441Z,80.67
2023-05-20T02:37:39.598Z,80.72
2023-05-20T02:40:09.385Z,80.65
2023-05-20T02:42:41.263Z,80.87
2023-05-20T02:45:09.787Z,80.77
2023-05-20T02:47:37.840Z,80.81
2023-05-20T02:50:07.227Z,80.84
2023-05-20T02:52:35.243Z,80.93
2023-05-20T02:55:04.924Z,80.91
2023-05-20T02:57:35.138Z,80.95
2023-05-20T03:00:05.054Z,81.02
2023-05-20T03:02:33.849Z,81.10
2023-05-20T03:05:02.614Z,81.03
2023-05-20T03:07:31.716Z,81.03
2023-05-20T03:09:59.992Z,81.17
2023-05-20T03:12:28.031Z,81.20
2023-05-20T03:14:56.110Z,81.10
2023-05-20T03:17:24.307Z,81.10
2023-05-20T03:19:52.239Z,81.24
2023-05-20T03:22:20.227Z,81.25
2023-05-20T03:24:48.511Z,81.23
2023-05-20T03:27:16.475Z,81.29
2023-05-20T03:29:44.633Z,81.46
2023-05-20T03:32:12.573Z,81.45
2023-05-20T03:34:40.846Z,81.48
2023-05-20T03:37:08.834Z,81.45
2023-05-20T03:39:36.951Z,81.50
2023-05-20T03:42:05.536Z,81.50
2023-05-20T03:44:33.956Z,81.57
2023-05-20T03:47:02.093Z,81.59
2023-05-20T03:49:31.123Z,81.63
2023-05-20T03:51:59.167Z,81.56
2023-05-20T03:54:28.163Z,81.74
2023-05-20T03:56:56.689Z,81.66
2023-05-20T03:59:24.919Z,81.86
2023-05-20T04:01:53.375Z,81.86
2023-05-20T04:04:21.472Z,81.88
2023-05-20T04:06:49.914Z,81.83
2023-05-20T04:09:17.905Z,81.84
2023-05-20T04:11:46.301Z,81.80
2023-05-20T04:14:15.350Z,81.87
2023-05-20T04:16:45.252Z,81.90
2023-05-20T04:19:13.424Z,81.78
2023-05-20T04:21:43.322Z,81.84
2023-05-20T04:24:11.855Z,81.87
2023-05-20T04:26:40.296Z,81.82
2023-05-20T04:29:08.268Z,81.78
2023-05-20T04:31:38.592Z,81.74
2023-05-20T04:34:06.597Z,81.78
2023-05-20T04:36:34.740Z,81.76
2023-05-20T04:39:05.135Z,81.74
2023-05-20T04:41:33.265Z,81.79
2023-05-20T04:44:01.969Z,81.83
2023-05-20T04:46:31.718Z,81.90
2023-05-20T04:48:59.967Z,81.74
2023-05-20T04:51:29.493Z,81.73
2023-05-20T04:54:35.866Z,81.84
2023-05-20T04:57:35.321Z,81.82
2023-05-20T05:00:07.368Z,81.74
2023-05-20T05:02:36.352Z,81.60
2023-05-20T05:05:05.044Z,81.70
2023-05-20T05:07:33.325Z,81.72
2023-05-20T05:10:01.462Z,81.69
2023-05-20T05:12:31.228Z,81.69
2023-05-20T05:14:59.999Z,81.53
2023-05-20T05:17:29.250Z,81.47
2023-05-20T05:19:58.269Z,81.62
2023-05-20T05:22:27.112Z,81.66
2023-05-20T05:24:55.902Z,81.61
2023-05-20T05:27:24.268Z,81.49
2023-05-20T05:29:52.510Z,81.56
2023-05-20T05:32:20.807Z,81.55
2023-05-20T05:34:49.123Z,81.46
2023-05-20T05:37:17.363Z,81.42
2023-05-20T05:39:45.610Z,81.49
2023-05-20T05:42:13.863Z,81.48
2023-05-20T05:44:42.784Z,81.33
2023-05-20T05:47:11.713Z,81.32
2023-05-20T05:49:39.833Z,81.24
2023-05-20T05:52:08.224Z,81.28
2023-05-20T05:54:36.626Z,81.23
2023-05-20T05:57:06.483Z,81.26
2023-05-20T05:59:35.468Z,81.57
2023-05-20T06:02:06.424Z,81.72
2023-05-20T06:04:34.508Z,81.13
2023-05-20T06:07:02.814Z,81.24
2023-05-20T06:09:31.112Z,81.40
2023-05-20T06:11:59.682Z,81.49
2023-05-20T06:14:27.775Z,81.57
2023-05-20T06:16:56.054Z,81.26
2023-05-20T06:19:24.602Z,81.39
2023-05-20T06:21:52.748Z,81.34
2023-05-20T06:24:22.410Z,81.21
2023-05-20T06:26:52.439Z,81.88
2023-05-20T06:29:21.063Z,81.76
2023-05-20T06:31:49.044Z,81.49
2023-05-20T06:34:16.996Z,81.41
2023-05-20T06:36:44.946Z,81.39
2023-05-20T06:39:13.127Z,81.25
2023-05-20T06:41:44.433Z,81.42
2023-05-20T06:44:19.943Z,81.47
2023-05-20T06:47:00.022Z,81.64
2023-05-20T06:49:28.531Z,81.52
2023-05-20T06:51:56.707Z,81.27
2023-05-20T06:54:25.598Z,81.39
2023-05-20T06:56:53.737Z,81.33
2023-05-20T06:59:22.689Z,81.28
2023-05-20T07:01:50.772Z,81.25
2023-05-20T07:04:19.883Z,81.39
2023-05-20T07:06:48.155Z,81.57
2023-05-20T07:09:16.482Z,81.09
2023-05-20T07:11:44.569Z,81.28
2023-05-20T07:14:12.961Z,81.37
2023-05-20T07:16:41.672Z,81.51
2023-05-20T07:19:10.115Z,81.33
2023-05-20T07:21:38.186Z,81.10
2023-05-20T07:24:24.301Z,81.04
2023-05-20T07:26:52.454Z,80.72
2023-05-20T07:29:20.549Z,80.96
2023-05-20T07:31:48.646Z,80.82
2023-05-20T07:34:17.513Z,80.96
2023-05-20T07:36:45.550Z,80.73
2023-05-20T07:39:15.331Z,80.99
2023-05-20T07:41:43.665Z,80.55
2023-05-20T07:44:13.078Z,80.67
2023-05-20T07:46:44.066Z,80.70
2023-05-20T07:49:12.537Z,80.40
2023-05-20T07:51:41.593Z,80.54
2023-05-20T07:54:09.717Z,80.39
2023-05-20T07:56:38.496Z,80.24
2023-05-20T07:59:07.606Z,79.94
2023-05-20T08:01:42.246Z,79.91
2023-05-20T08:04:12.084Z,80.21
2023-05-20T08:06:41.398Z,80.19
2023-05-20T08:09:11.811Z,80.06
2023-05-20T08:11:42.171Z,79.78
2023-05-20T08:14:10.264Z,79.52
2023-05-20T08:16:42.470Z,79.26
2023-05-20T08:19:10.751Z,79.12
2023-05-20T08:21:39.248Z,78.80
2023-05-20T08:24:08.089Z,79.06
2023-05-20T08:26:36.411Z,78.78
2023-05-20T08:29:04.500Z,79.04
2023-05-20T08:31:33.583Z,78.86
2023-05-20T08:34:01.811Z,78.83
2023-05-20T08:36:29.888Z,78.46
2023-05-20T08:38:58.035Z,78.60
2023-05-20T08:41:26.424Z,78.58
2023-05-20T08:43:54.702Z,77.80
2023-05-20T08:46:23.652Z,77.64
2023-05-20T08:48:52.223Z,77.84
2023-05-20T08:51:23.834Z,77.83
2023-05-20T08:53:52.351Z,77.81
2023-05-20T08:56:21.991Z,77.56
2023-05-20T08:58:50.549Z,77.54
2023-05-20T09:01:18.703Z,77.21
2023-05-20T09:03:46.670Z,76.78
2023-05-20T09:06:17.986Z,76.78
2023-05-20T09:08:47.024Z,76.67
2023-05-20T09:11:15.113Z,76.67
2023-05-20T09:13:43.431Z,76.34
2023-05-20T09:16:11.791Z,76.21
2023-05-20T09:18:40.894Z,76.25
2023-05-20T09:21:10.285Z,76.08
2023-05-20T09:23:38.665Z,76.48
2023-05-20T09:26:06.895Z,75.95
2023-05-20T09:28:36.144Z,75.42
2023-05-20T09:31:05.807Z,75.34
2023-05-20T09:33:35.685Z,74.97
2023-05-20T09:36:05.129Z,75.08
2023-05-20T09:38:38.254Z,75.17
2023-05-20T09:41:13.925Z,74.76
2023-05-20T09:43:42.484Z,75.33
2023-05-20T09:46:10.997Z,75.09
2023-05-20T09:48:40.156Z,74.75
2023-05-20T09:51:09.826Z,74.50
2023-05-20T09:53:38.021Z,74.58
2023-05-20T09:56:06.285Z,74.41
2023-05-20T09:58:36.135Z,74.33
2023-05-20T10:01:04.218Z,74.06
2023-05-20T10:03:33.450Z,74.10
2023-05-20T10:06:21.544Z,74.10
2023-05-20T10:08:58.077Z,74.09
2023-05-20T10:11:44.363Z,74.05
2023-05-20T10:14:37.164Z,73.92
2023-05-20T10:17:13.490Z,73.39
2023-05-20T10:19:41.946Z,73.40
2023-05-20T10:22:11.791Z,73.52
2023-05-20T10:24:41.895Z,73.54
2023-05-20T10:27:18.176Z,73.43
2023-05-20T10:29:52.291Z,73.42
2023-05-20T10:32:27.991Z,72.93
2023-05-20T10:35:01.626Z,72.41
2023-05-20T10:37:30.560Z,72.50
2023-05-20T10:40:08.898Z,72.27
2023-05-20T10:42:37.137Z,72.54
2023-05-20T10:45:06.526Z,73.34
2023-05-20T10:47:35.354Z,73.65
2023-05-20T10:50:06.025Z,73.82
2023-05-20T10:52:37.050Z,73.56
2023-05-20T10:55:05.538Z,73.05
2023-05-20T10:57:34.658Z,72.67
2023-05-20T11:00:05.593Z,72.71
2023-05-20T11:02:34.515Z,72.56
2023-05-20T11:05:04.390Z,72.48
2023-05-20T11:07:32.582Z,72.19
2023-05-20T11:10:00.667Z,71.65
2023-05-20T11:12:28.705Z,71.83
2023-05-20T11:14:56.902Z,71.50
2023-05-20T11:17:25.000Z,71.10
2023-05-20T11:19:53.044Z,71.39
2023-05-20T11:22:21.218Z,70.82
2023-05-20T11:24:49.195Z,70.35
2023-05-20T11:27:17.306Z,70.45
2023-05-20T11:29:45.547Z,70.73
2023-05-20T11:32:13.551Z,70.29
2023-05-20T11:34:42.734Z,69.99
2023-05-20T11:37:11.796Z,69.82
2023-05-20T11:39:40.381Z,69.80
2023-05-20T11:42:08.451Z,69.13
2023-05-20T11:44:36.583Z,68.62
2023-05-20T11:47:04.845Z,68.23
2023-05-20T11:49:40.534Z,67.68
2023-05-20T11:52:10.308Z,67.47
2023-05-20T11:54:38.622Z,67.36
2023-05-20T11:57:07.328Z,67.79
2023-05-20T11:59:35.630Z,67.92
2023-05-20T12:02:03.687Z,68.47
2023-05-20T12:04:31.743Z,68.49
2023-05-20T12:06:59.891Z,68.32
2023-05-20T12:09:28.027Z,68.20
2023-05-20T12:11:56.916Z,67.99
2023-05-20T12:14:24.964Z,67.84
2023-05-20T12:16:53.804Z,66.94
2023-05-20T12:19:21.814Z,66.24
2023-05-20T12:21:49.890Z,66.20
2023-05-20T12:24:17.890Z,66.43
2023-05-20T12:26:45.830Z,66.61
2023-05-20T12:29:13.890Z,66.61
2023-05-20T12:31:41.899Z,66.85
2023-05-20T12:34:09.841Z,66.90
2023-05-20T12:36:37.970Z,66.93
2023-05-20T12:39:06.229Z,66.60
2023-05-20T12:41:34.333Z,66.59
2023-05-20T12:44:02.559Z,67.25
2023-05-20T12:46:30.754Z,68.25
2023-05-20T12:48:58.760Z,66.75
2023-05-20T12:51:26.783Z,66.51
2023-05-20T12:53:54.784Z,66.77
2023-05-20T12:56:23.831Z,66.64
2023-05-20T12:58:51.875Z,66.68
2023-05-20T13:01:19.869Z,66.68
2023-05-20T13:03:48.127Z,66.27
2023-05-20T13:06:16.798Z,66.43
2023-05-20T13:08:45.484Z,66.39
2023-05-20T13:11:13.784Z,66.27
2023-05-20T13:13:41.757Z,66.10
2023-05-20T13:16:10.699Z,66.05
2023-05-20T13:18:38.753Z,65.93
2023-05-20T13:21:06.847Z,65.92
2023-05-20T13:23:34.910Z,66.05
2023-05-20T13:26:03.125Z,65.87
2023-05-20T13:28:31.442Z,66.14
2023-05-20T13:30:59.486Z,66.10
2023-05-20T13:33:27.508Z,65.94
2023-05-20T13:35:55.635Z,65.79
2023-05-20T13:38:23.638Z,65.79
2023-05-20T13:40:51.738Z,66.03
2023-05-20T13:43:19.687Z,65.87
2023-05-20T13:45:47.799Z,66.70
2023-05-20T13:48:16.260Z,66.64
2023-05-20T13:50:44.420Z,65.81
2023-05-20T13:53:13.886Z,65.59
2023-05-20T13:55:42.123Z,65.35
2023-05-20T13:58:10.149Z,64.97
2023-05-20T14:00:39.137Z,64.98
2023-05-20T14:03:09.192Z,65.04
2023-05-20T14:05:37.533Z,64.51
2023-05-20T14:08:05.679Z,64.68
2023-05-20T14:10:33.929Z,64.50
2023-05-20T14:13:02.296Z,64.17
2023-05-20T14:15:33.078Z,64.25
2023-05-20T14:18:01.138Z,64.40
2023-05-20T14:20:29.085Z,64.69
2023-05-20T14:22:57.324Z,64.13
2023-05-20T14:25:25.301Z,63.76
2023-05-20T14:27:53.370Z,63.85
2023-05-20T14:30:21.464Z,63.84
2023-05-20T14:32:49.564Z,64.11
2023-05-20T14:35:18.354Z,64.44
2023-05-20T14:37:46.574Z,64.17
2023-05-20T14:40:14.847Z,64.14
2023-05-20T14:42:42.829Z,64.12
2023-05-20T14:45:11.281Z,64.20
2023-05-20T14:47:42.002Z,64.32
2023-05-20T14:50:10.226Z,64.28
2023-05-20T14:52:38.256Z,64.19
2023-05-20T14:55:06.348Z,64.22
2023-05-20T14:57:34.381Z,64.23
2023-05-20T15:00:02.413Z,64.34
2023-05-20T15:02:30.610Z,64.09
2023-05-20T15:04:59.052Z,64.17
2023-05-20T15:07:27.737Z,64.25
2023-05-20T15:09:55.894Z,64.38
2023-05-20T15:12:24.005Z,64.53
2023-05-20T15:14:51.946Z,64.63
2023-05-20T15:17:19.883Z,64.44
2023-05-20T15:19:47.829Z,64.20
2023-05-20T15:22:15.866Z,64.38
2023-05-20T15:24:43.790Z,64.29
2023-05-20T15:27:11.787Z,64.27
2023-05-20T15:29:40.906Z,64.39
2023-05-20T15:32:09.088Z,64.54
2023-05-20T15:34:37.142Z,64.54
2023-05-20T15:37:05.103Z,64.48
2023-05-20T15:39:37.294Z,64.51
2023-05-20T15:42:06.416Z,64.47
2023-05-20T15:44:36.163Z,64.69
2023-05-20T15:47:06.145Z,65.03
2023-05-20T15:49:34.258Z,65.10
2023-05-20T15:52:03.924Z,65.08
2023-05-20T15:54:32.957Z,64.95
2023-05-20T15:57:01.260Z,65.07
2023-05-20T15:59:29.314Z,65.22
2023-05-20T16:01:57.481Z,65.24
2023-05-20T16:04:25.896Z,65.35
2023-05-20T16:06:54.094Z,65.57
2023-05-20T16:09:22.443Z,65.72
2023-05-20T16:11:50.492Z,65.68
2023-05-20T16:14:18.657Z,65.59
2023-05-20T16:16:46.720Z,65.66
2023-05-20T16:19:14.790Z,65.65
2023-05-20T16:21:42.794Z,65.82
2023-05-20T16:24:10.877Z,65.92
2023-05-20T16:26:38.869Z,65.88
2023-05-20T16:29:07.172Z,66.00
2023-05-20T16:31:35.134Z,66.05
2023-05-20T16:34:03.986Z,66.17
2023-05-20T16:36:32.039Z,66.16
2023-05-20T16:38:59.977Z,66.17
2023-05-20T16:41:28.004Z,66.14
2023-05-20T16:43:58.752Z,66.10
2023-05-20T16:46:26.783Z,66.09
2023-05-20T16:48:54.958Z,66.22
2023-05-20T16:51:23.608Z,66.40
2023-05-20T16:53:51.926Z,66.39
2023-05-20T16:56:22.115Z,66.41
2023-05-20T16:58:52.682Z,66.68
2023-05-20T17:01:21.911Z,66.62
2023-05-20T17:03:50.013Z,66.68
2023-05-20T17:06:18.066Z,66.73
2023-05-20T17:08:46.188Z,66.66
2023-05-20T17:11:14.223Z,66.67
2023-05-20T17:13:42.398Z,66.79
2023-05-20T17:16:12.120Z,66.75
2023-05-20T17:18:40.327Z,66.82
2023-05-20T17:21:08.382Z,66.71
2023-05-20T17:23:36.375Z,66.70
2023-05-20T17:26:04.577Z,66.79
2023-05-20T17:28:32.537Z,66.75
2023-05-20T17:31:00.492Z,66.89
2023-05-20T17:33:28.676Z,67.00
2023-05-20T17:35:57.084Z,67.05
2023-05-20T17:38:26.502Z,67.12
2023-05-20T17:40:55.271Z,67.17
2023-05-20T17:43:25.164Z,67.25
2023-05-20T17:45:53.330Z,67.35
2023-05-20T17:48:21.426Z,67.39
2023-05-20T17:50:49.520Z,67.56
2023-05-20T17:53:18.717Z,67.64
2023-05-20T17:55:49.506Z,67.62
2023-05-20T17:58:17.608Z,67.56
2023-05-20T18:00:45.577Z,67.75
2023-05-20T18:03:13.980Z,67.83
2023-05-20T18:05:42.564Z,67.88
2023-05-20T18:08:10.573Z,67.87
2023-05-20T18:10:38.930Z,68.22
2023-05-20T18:13:06.895Z,68.42
2023-05-20T18:15:34.846Z,68.75
2023-05-20T18:18:02.977Z,68.48
2023-05-20T18:20:31.146Z,68.31
2023-05-20T18:22:59.284Z,68.45
2023-05-20T18:25:27.400Z,68.41
2023-05-20T18:27:55.531Z,68.44
2023-05-20T18:30:23.686Z,68.53
2023-05-20T18:32:51.874Z,68.48
2023-05-20T18:35:19.928Z,68.73
2023-05-20T18:37:47.893Z,68.79
2023-05-20T18:40:15.927Z,68.71
2023-05-20T18:42:43.905Z,68.80
2023-05-20T18:45:12.277Z,68.93
2023-05-20T18:47:40.403Z,68.96
2023-05-20T18:50:09.635Z,69.03
2023-05-20T18:52:37.662Z,69.17
2023-05-20T18:55:08.974Z,69.24
2023-05-20T18:57:37.853Z,69.36
2023-05-20T19:00:10.784Z,69.55
2023-05-20T19:02:40.173Z,69.74
2023-05-20T19:05:09.346Z,69.91
2023-05-20T19:07:38.544Z,69.99
2023-05-20T19:10:07.521Z,70.19
2023-05-20T19:12:35.470Z,70.43
2023-05-20T19:15:05.188Z,70.55
2023-05-20T19:17:33.851Z,70.62
2023-05-20T19:20:02.565Z,70.78
2023-05-20T19:22:30.936Z,71.00
2023-05-20T19:24:59.351Z,71.05
2023-05-20T19:27:27.420Z,71.32
2023-05-20T19:29:55.571Z,71.62
2023-05-20T19:32:23.683Z,71.70
2023-05-20T19:34:51.682Z,71.57
2023-05-20T19:37:22.341Z,71.72
2023-05-20T19:39:51.124Z,71.79
2023-05-20T19:42:19.085Z,71.81
2023-05-20T19:44:47.289Z,72.01
2023-05-20T19:47:15.757Z,72.00
2023-05-20T19:49:43.749Z,72.28
2023-05-20T19:52:11.690Z,72.29
2023-05-20T19:54:41.785Z,72.41
2023-05-20T19:57:10.064Z,72.54
2023-05-20T19:59:38.357Z,72.67
2023-05-20T20:02:07.040Z,72.78
2023-05-20T20:04:36.468Z,72.86
2023-05-20T20:07:04.751Z,73.03
2023-05-20T20:09:33.454Z,73.16
2023-05-20T20:12:02.829Z,73.24
2023-05-20T20:14:31.376Z,73.40
2023-05-20T20:16:59.809Z,73.41
2023-05-20T20:19:28.633Z,73.47
2023-05-20T20:21:58.159Z,73.83
2023-05-20T20:24:28.028Z,74.29
2023-05-20T20:26:57.054Z,74.68
2023-05-20T20:29:25.702Z,74.51
2023-05-20T20:31:54.364Z,74.31
2023-05-20T20:34:22.807Z,74.30
2023-05-20T20:36:51.385Z,74.33
2023-05-20T20:39:19.496Z,74.46
2023-05-20T20:41:52.272Z,74.66
2023-05-20T20:44:23.126Z,74.87
2023-05-20T20:46:51.917Z,74.96
2023-05-20T20:49:22.172Z,74.97
2023-05-20T20:51:51.019Z,74.95
2023-05-20T20:54:19.010Z,74.99
2023-05-20T20:56:47.293Z,75.03
2023-05-20T20:59:16.045Z,75.32
2023-05-20T21:01:45.140Z,75.33
2023-05-20T21:04:13.974Z,75.40
2023-05-20T21:06:42.525Z,75.56
2023-05-20T21:09:11.640Z,75.60
2023-05-20T21:11:42.475Z,75.66
2023-05-20T21:14:12.407Z,75.86
2023-05-20T21:16:42.158Z,75.99
2023-05-20T21:19:12.930Z,76.16
2023-05-20T21:21:41.044Z,76.15
2023-05-20T21:24:09.019Z,76.22
2023-05-20T21:26:37.007Z,76.34
2023-05-20T21:29:06.111Z,76.41
2023-05-20T21:31:34.161Z,76.52
2023-05-20T21:34:02.254Z,76.65
2023-05-20T21:36:30.538Z,76.73
2023-05-20T21:38:58.485Z,76.72
2023-05-20T21:41:27.334Z,76.93
2023-05-20T21:43:55.555Z,76.85
2023-05-20T21:46:23.807Z,76.94
2023-05-20T21:48:51.865Z,77.02
2023-05-20T21:51:19.952Z,77.08
2023-05-20T21:53:47.924Z,77.18
2023-05-20T21:56:15.902Z,77.22
2023-05-20T21:58:43.892Z,77.46
2023-05-20T22:01:11.986Z,77.46
2023-05-20T22:03:40.344Z,77.57
2023-05-20T22:06:09.237Z,77.63
2023-05-20T22:08:37.267Z,77.87
2023-05-20T22:11:08.417Z,78.13
2023-05-20T22:13:36.410Z,78.06
2023-05-20T22:16:05.194Z,78.23
2023-05-20T22:18:34.048Z,78.33
2023-05-20T22:21:02.114Z,78.30
2023-05-20T22:23:30.093Z,78.23
2023-05-20T22:25:58.240Z,78.34
2023-05-20T22:28:26.334Z,78.41
2023-05-20T22:30:54.842Z,78.43
2023-05-20T22:33:24.389Z,78.61
2023-05-20T22:35:53.603Z,78.59
2023-05-20T22:38:22.033Z,78.64
2023-05-20T22:40:50.097Z,78.65
2023-05-20T22:43:18.068Z,78.74
2023-05-20T22:45:46.139Z,78.77
2023-05-20T22:48:14.388Z,78.84
2023-05-20T22:50:42.307Z,78.85
2023-05-20T22:53:10.237Z,78.92
2023-05-20T22:55:38.859Z,78.91
2023-05-20T22:58:08.024Z,78.98
2023-05-20T23:00:36.438Z,78.98
2023-05-20T23:03:05.107Z,78.98
2023-05-20T23:05:33.237Z,79.06
2023-05-20T23:08:01.422Z,79.00
2023-05-20T23:10:29.454Z,79.05
2023-05-20T23:12:57.399Z,79.17
2023-05-20T23:15:25.540Z,79.24
2023-05-20T23:17:53.590Z,79.28
2023-05-20T23:20:22.345Z,79.32
2023-05-20T23:22:50.646Z,79.35
2023-05-20T23:25:18.618Z,79.44
2023-05-20T23:27:46.697Z,79.53
2023-05-20T23:30:14.739Z,79.50
2023-05-20T23:32:42.855Z,79.57
2023-05-20T23:35:11.798Z,79.67
2023-05-20T23:37:41.227Z,79.57
2023-05-20T23:40:09.711Z,79.68
2023-05-20T23:42:38.032Z,79.71
2023-05-20T23:45:06.590Z,79.75
2023-05-20T23:47:36.323Z,79.82
2023-05-20T23:50:04.491Z,79.94
2023-05-20T23:52:32.503Z,79.98
2023-05-20T23:55:00.462Z,80.07
2023-05-20T23:57:28.525Z,80.15
2023-05-20T23:59:56.569Z,80.03
